createdAt,value
2018-08-16T00:00:44.024Z,99328.00
2018-08-16T00:03:14.704Z,99337.00
2018-08-16T00:05:45.388Z,99341.00
2018-08-16T00:08:16.513Z,99341.00
2018-08-16T00:10:47.307Z,99345.00
2018-08-16T00:13:17.926Z,99340.00
2018-08-16T00:15:48.757Z,99338.00
2018-08-16T00:18:18.678Z,99331.00
2018-08-16T00:20:49.461Z,99336.00
2018-08-16T00:23:20.216Z,99333.00
2018-08-16T00:25:50.453Z,99332.00
2018-08-16T00:28:21.600Z,99333.00
2018-08-16T00:30:52.415Z,99336.00
2018-08-16T00:33:22.959Z,99339.00
2018-08-16T00:35:54.244Z,99340.00
2018-08-16T00:38:24.999Z,99335.00
2018-08-16T00:40:55.846Z,99336.00
2018-08-16T00:43:26.600Z,99336.00
2018-08-16T00:45:57.311Z,99334.00
2018-08-16T00:48:28.059Z,99335.00
2018-08-16T00:50:58.761Z,99340.00
2018-08-16T00:53:29.675Z,99335.00
2018-08-16T00:56:00.458Z,99339.00
2018-08-16T00:58:30.780Z,99336.00
2018-08-16T01:01:02.264Z,99336.00
2018-08-16T01:03:32.119Z,99335.00
2018-08-16T01:06:02.765Z,99336.00
2018-08-16T01:08:33.720Z,99334.00
2018-08-16T01:11:04.008Z,99336.00
2018-08-16T01:13:34.847Z,99341.00
2018-08-16T01:16:05.748Z,99347.00
2018-08-16T01:18:37.266Z,99337.00
2018-08-16T01:21:08.191Z,99340.00
2018-08-16T01:23:39.277Z,99336.00
2018-08-16T01:26:10.458Z,99344.00
2018-08-16T01:28:41.205Z,99341.00
2018-08-16T01:31:12.586Z,99343.00
2018-08-16T01:33:43.491Z,99348.00
2018-08-16T01:36:14.023Z,99348.00
2018-08-16T01:38:44.827Z,99347.00
2018-08-16T01:41:15.627Z,99353.00
2018-08-16T01:43:46.379Z,99348.00
2018-08-16T01:46:17.053Z,99353.00
2018-08-16T01:48:46.990Z,99343.00
2018-08-16T01:51:17.810Z,99348.00
2018-08-16T01:53:48.900Z,99341.00
2018-08-16T01:56:19.485Z,99342.00
2018-08-16T01:58:50.449Z,99338.00
2018-08-16T02:01:20.502Z,99337.00
2018-08-16T02:03:51.370Z,99336.00
2018-08-16T02:06:21.981Z,99341.00
2018-08-16T02:08:52.893Z,99339.00
2018-08-16T02:11:23.614Z,99335.00
2018-08-16T02:13:54.306Z,99337.00
2018-08-16T02:16:25.014Z,99340.00
2018-08-16T02:18:55.954Z,99340.00
2018-08-16T02:21:26.521Z,99340.00
2018-08-16T02:23:56.756Z,99332.00
2018-08-16T02:26:27.486Z,99329.00
2018-08-16T02:28:58.382Z,99329.00
2018-08-16T02:31:29.244Z,99329.00
2018-08-16T02:34:00.205Z,99337.00
2018-08-16T02:36:30.926Z,99332.00
2018-08-16T02:39:01.846Z,99333.00
2018-08-16T02:41:32.636Z,99338.00
2018-08-16T02:44:03.325Z,99333.00
2018-08-16T02:46:33.950Z,99340.00
2018-08-16T02:49:04.827Z,99338.00
2018-08-16T02:51:35.044Z,99341.00
2018-08-16T02:54:06.017Z,99343.00
2018-08-16T02:56:36.820Z,99347.00
2018-08-16T02:59:07.810Z,99349.00
2018-08-16T03:01:38.596Z,99357.00
2018-08-16T03:04:09.293Z,99350.00
2018-08-16T03:06:39.149Z,99351.00
2018-08-16T03:09:11.035Z,99354.00
2018-08-16T03:11:41.569Z,99350.00
2018-08-16T03:14:12.475Z,99355.00
2018-08-16T03:16:43.271Z,99357.00
2018-08-16T03:19:13.951Z,99352.00
2018-08-16T03:21:44.084Z,99355.00
2018-08-16T03:24:14.228Z,99359.00
2018-08-16T03:26:45.265Z,99365.00
2018-08-16T03:29:16.546Z,99366.00
2018-08-16T03:31:46.883Z,99369.00
2018-08-16T03:34:17.440Z,99367.00
2018-08-16T03:36:48.001Z,99372.00
2018-08-16T03:39:18.894Z,99375.00
2018-08-16T03:41:49.496Z,99368.00
2018-08-16T03:44:20.097Z,99376.00
2018-08-16T03:46:51.189Z,99378.00
2018-08-16T03:49:21.396Z,99382.00
2018-08-16T03:51:52.241Z,99381.00
2018-08-16T03:54:22.814Z,99379.00
2018-08-16T03:56:53.447Z,99380.00
2018-08-16T03:59:24.203Z,99385.00
2018-08-16T04:01:54.914Z,99378.00
2018-08-16T04:04:26.384Z,99369.00
2018-08-16T04:06:57.154Z,99383.00
2018-08-16T04:09:27.689Z,99391.00
2018-08-16T04:11:58.568Z,99376.00
2018-08-16T04:14:29.483Z,99377.00
2018-08-16T04:17:00.393Z,99389.00
2018-08-16T04:19:31.102Z,99386.00
2018-08-16T04:22:01.808Z,99382.00
2018-08-16T04:24:32.505Z,99387.00
2018-08-16T04:27:03.441Z,99392.00
2018-08-16T04:29:33.986Z,99386.00
2018-08-16T04:32:04.994Z,99387.00
2018-08-16T04:34:35.799Z,99388.00
2018-08-16T04:37:06.477Z,99399.00
2018-08-16T04:39:37.189Z,99396.00
2018-08-16T04:42:08.112Z,99394.00
2018-08-16T04:44:38.352Z,99387.00
2018-08-16T04:47:09.589Z,99392.00
2018-08-16T04:49:40.299Z,99399.00
2018-08-16T04:52:10.946Z,99398.00
2018-08-16T04:54:41.810Z,99400.00
2018-08-16T04:57:12.558Z,99401.00
2018-08-16T04:59:43.578Z,99401.00
2018-08-16T05:02:14.407Z,99405.00
2018-08-16T05:04:45.146Z,99400.00
2018-08-16T05:07:15.795Z,99400.00
2018-08-16T05:09:46.700Z,99406.00
2018-08-16T05:12:17.251Z,99403.00
2018-08-16T05:14:47.853Z,99395.00
2018-08-16T05:17:17.810Z,99400.00
2018-08-16T05:19:48.698Z,99400.00
2018-08-16T05:22:18.939Z,99396.00
2018-08-16T05:24:49.539Z,99400.00
2018-08-16T05:27:19.968Z,99393.00
2018-08-16T05:29:50.894Z,99399.00
2018-08-16T05:32:21.283Z,99395.00
2018-08-16T05:34:52.456Z,99399.00
2018-08-16T05:37:22.675Z,99396.00
2018-08-16T05:39:53.424Z,99393.00
2018-08-16T05:42:24.122Z,99389.00
2018-08-16T05:44:54.682Z,99390.00
2018-08-16T05:47:25.675Z,99381.00
2018-08-16T05:49:57.368Z,99385.00
2018-08-16T05:52:28.818Z,99375.00
2018-08-16T05:54:59.719Z,99377.00
2018-08-16T05:57:30.271Z,99382.00
2018-08-16T06:00:01.087Z,99384.00
2018-08-16T06:02:32.492Z,99388.00
2018-08-16T06:05:03.899Z,99385.00
2018-08-16T06:07:34.612Z,99391.00
2018-08-16T06:10:06.036Z,99385.00
2018-08-16T06:12:36.134Z,99383.00
2018-08-16T06:15:08.233Z,99386.00
2018-08-16T06:17:39.470Z,99390.00
2018-08-16T06:20:12.137Z,99387.00
2018-08-16T06:22:43.037Z,99382.00
2018-08-16T06:25:14.652Z,99381.00
2018-08-16T06:27:45.741Z,99376.00
2018-08-16T06:30:17.766Z,99374.00
2018-08-16T06:32:48.665Z,99375.00
2018-08-16T06:35:20.504Z,99372.00
2018-08-16T06:37:51.274Z,99373.00
2018-08-16T06:40:22.163Z,99373.00
2018-08-16T06:42:53.032Z,99377.00
2018-08-16T06:45:24.011Z,99370.00
2018-08-16T06:47:54.156Z,99371.00
2018-08-16T06:50:25.837Z,99372.00
2018-08-16T06:52:56.913Z,99368.00
2018-08-16T06:55:27.337Z,99360.00
2018-08-16T06:57:58.448Z,99365.00
2018-08-16T07:00:29.159Z,99360.00
2018-08-16T07:03:00.217Z,99357.00
2018-08-16T07:05:31.411Z,99368.00
2018-08-16T07:08:02.120Z,99363.00
2018-08-16T07:10:32.102Z,99361.00
2018-08-16T07:13:02.068Z,99363.00
2018-08-16T07:15:32.676Z,99363.00
2018-08-16T07:18:03.146Z,99351.00
2018-08-16T07:20:34.849Z,99357.00
2018-08-16T07:23:05.699Z,99352.00
2018-08-16T07:25:37.214Z,99358.00
2018-08-16T07:28:07.391Z,99352.00
2018-08-16T07:30:38.056Z,99355.00
2018-08-16T07:33:09.002Z,99353.00
2018-08-16T07:35:39.805Z,99349.00
2018-08-16T07:38:11.666Z,99338.00
2018-08-16T07:40:43.490Z,99335.00
2018-08-16T07:43:14.644Z,99335.00
2018-08-16T07:45:46.344Z,99327.00
2018-08-16T07:48:17.093Z,99329.00
2018-08-16T07:50:47.995Z,99329.00
2018-08-16T07:53:18.739Z,99324.00
2018-08-16T07:55:49.534Z,99323.00
2018-08-16T07:58:19.699Z,99320.00
2018-08-16T08:00:50.673Z,99323.00
2018-08-16T08:03:21.676Z,99312.00
2018-08-16T08:05:52.664Z,99317.00
2018-08-16T08:08:23.547Z,99312.00
2018-08-16T08:10:54.576Z,99314.00
2018-08-16T08:13:24.495Z,99308.00
2018-08-16T08:15:55.524Z,99307.00
2018-08-16T08:18:25.725Z,99308.00
2018-08-16T08:20:55.684Z,99307.00
2018-08-16T08:23:26.025Z,99304.00
2018-08-16T08:25:55.869Z,99295.00
2018-08-16T08:28:26.591Z,99297.00
2018-08-16T08:30:57.424Z,99293.00
2018-08-16T08:33:27.418Z,99295.00
2018-08-16T08:36:08.325Z,99286.00
2018-08-16T08:38:39.110Z,99288.00
2018-08-16T08:41:09.731Z,99284.00
2018-08-16T08:43:51.531Z,99281.00
2018-08-16T08:46:22.489Z,99274.00
2018-08-16T08:48:53.850Z,99277.00
2018-08-16T08:51:25.106Z,99275.00
2018-08-16T08:55:03.926Z,99272.00
2018-08-16T08:57:45.585Z,99264.00
2018-08-16T09:00:16.733Z,99259.00
2018-08-16T09:02:47.773Z,99258.00
2018-08-16T09:05:18.801Z,99250.00
2018-08-16T09:07:49.636Z,99257.00
2018-08-16T09:10:57.225Z,99248.00
2018-08-16T09:13:38.707Z,99244.00
2018-08-16T09:16:11.883Z,99243.00
2018-08-16T09:18:42.950Z,99243.00
2018-08-16T09:21:14.663Z,99243.00
2018-08-16T09:23:45.755Z,99245.00
2018-08-16T09:26:22.085Z,99240.00
2018-08-16T09:28:52.999Z,99234.00
2018-08-16T09:31:34.459Z,99235.00
2018-08-16T09:34:20.772Z,99234.00
2018-08-16T09:36:51.580Z,99235.00
2018-08-16T09:39:22.740Z,99235.00
2018-08-16T09:41:53.847Z,99229.00
2018-08-16T09:44:24.845Z,99226.00
2018-08-16T09:47:10.843Z,99223.00
2018-08-16T09:49:50.679Z,99219.00
2018-08-16T09:52:22.451Z,99219.00
2018-08-16T09:54:53.482Z,99213.00
2018-08-16T09:57:24.445Z,99209.00
2018-08-16T09:59:55.334Z,99209.00
2018-08-16T10:02:26.076Z,99203.00
2018-08-16T10:04:57.024Z,99204.00
2018-08-16T10:07:27.898Z,99197.00
2018-08-16T10:09:58.122Z,99196.00
2018-08-16T10:12:28.975Z,99197.00
2018-08-16T10:15:00.036Z,99188.00
2018-08-16T10:17:31.218Z,99188.00
2018-08-16T10:20:01.927Z,99184.00
2018-08-16T10:22:32.865Z,99183.00
2018-08-16T10:25:03.398Z,99173.00
2018-08-16T10:27:34.407Z,99175.00
2018-08-16T10:30:06.026Z,99176.00
2018-08-16T10:32:36.895Z,99167.00
2018-08-16T10:35:08.359Z,99160.00
2018-08-16T10:37:39.339Z,99159.00
2018-08-16T10:40:10.007Z,99167.00
2018-08-16T10:42:40.639Z,99159.00
2018-08-16T10:45:11.557Z,99164.00
2018-08-16T10:47:42.899Z,99160.00
2018-08-16T10:50:13.826Z,99154.00
2018-08-16T10:52:44.566Z,99163.00
2018-08-16T10:55:15.521Z,99169.00
2018-08-16T10:57:46.077Z,99159.00
2018-08-16T11:00:17.005Z,99168.00
2018-08-16T11:02:47.940Z,99162.00
2018-08-16T11:05:18.955Z,99159.00
2018-08-16T11:07:50.067Z,99159.00
2018-08-16T11:10:21.060Z,99162.00
2018-08-16T11:12:51.770Z,99166.00
2018-08-16T11:15:23.164Z,99157.00
2018-08-16T11:17:54.053Z,99150.00
2018-08-16T11:20:24.882Z,99145.00
2018-08-16T11:22:55.983Z,99148.00
2018-08-16T11:25:27.669Z,99148.00
2018-08-16T11:27:58.590Z,99140.00
2018-08-16T11:30:29.478Z,99145.00
2018-08-16T11:33:00.358Z,99149.00
2018-08-16T11:35:31.245Z,99142.00
2018-08-16T11:38:02.321Z,99130.00
2018-08-16T11:40:32.681Z,99129.00
2018-08-16T11:43:03.277Z,99133.00
2018-08-16T11:45:34.410Z,99131.00
2018-08-16T11:48:05.285Z,99129.00
2018-08-16T11:50:36.019Z,99122.00
2018-08-16T11:53:06.924Z,99127.00
2018-08-16T11:55:37.452Z,99126.00
2018-08-16T11:58:07.789Z,99133.00
2018-08-16T12:00:38.230Z,99133.00
2018-08-16T12:03:08.366Z,99117.00
2018-08-16T12:05:38.311Z,99108.00
2018-08-16T12:08:08.733Z,99104.00
2018-08-16T12:10:38.928Z,99107.00
2018-08-16T12:13:09.332Z,99113.00
2018-08-16T12:15:39.354Z,99104.00
2018-08-16T12:18:09.268Z,99104.00
2018-08-16T12:20:39.253Z,99112.00
2018-08-16T12:23:09.787Z,99108.00
2018-08-16T12:25:39.829Z,99099.00
2018-08-16T12:28:09.829Z,99096.00
2018-08-16T12:30:39.918Z,99097.00
2018-08-16T12:33:09.781Z,99111.00
2018-08-16T12:35:39.866Z,99101.00
2018-08-16T12:38:10.023Z,99097.00
2018-08-16T12:40:40.084Z,99092.00
2018-08-16T12:43:10.182Z,99093.00
2018-08-16T12:45:40.006Z,99094.00
2018-08-16T12:48:10.548Z,99096.00
2018-08-16T12:50:40.432Z,99082.00
2018-08-16T12:53:10.576Z,99091.00
2018-08-16T12:55:40.476Z,99093.00
2018-08-16T12:58:10.542Z,99083.00
2018-08-16T13:00:40.487Z,99076.00
2018-08-16T13:03:10.563Z,99069.00
2018-08-16T13:05:40.574Z,99079.00
2018-08-16T13:08:10.558Z,99077.00
2018-08-16T13:10:40.455Z,99073.00
2018-08-16T13:13:10.349Z,99081.00
2018-08-16T13:15:40.550Z,99077.00
2018-08-16T13:18:10.487Z,99075.00
2018-08-16T13:20:40.495Z,99068.00
2018-08-16T13:23:10.358Z,99064.00
2018-08-16T13:25:40.375Z,99064.00
2018-08-16T13:28:10.249Z,99066.00
2018-08-16T13:30:40.170Z,99062.00
2018-08-16T13:33:10.180Z,99051.00
2018-08-16T13:35:40.104Z,99052.00
2018-08-16T13:38:10.101Z,99048.00
2018-08-16T13:40:40.132Z,99052.00
2018-08-16T13:43:10.164Z,99054.00
2018-08-16T13:45:40.215Z,99053.00
2018-08-16T13:48:10.180Z,99058.00
2018-08-16T13:50:40.037Z,99065.00
2018-08-16T13:53:09.995Z,99049.00
2018-08-16T13:55:40.026Z,99054.00
2018-08-16T13:58:10.062Z,99057.00
2018-08-16T14:00:39.994Z,99051.00
2018-08-16T14:03:10.493Z,99056.00
2018-08-16T14:05:40.777Z,99049.00
2018-08-16T14:08:11.027Z,99047.00
2018-08-16T14:10:41.910Z,99040.00
2018-08-16T14:13:12.413Z,99037.00
2018-08-16T14:15:43.964Z,99041.00
2018-08-16T14:18:14.073Z,99038.00
2018-08-16T14:20:45.102Z,99038.00
2018-08-16T14:23:16.007Z,99044.00
2018-08-16T14:25:46.940Z,99037.00
2018-08-16T14:28:17.783Z,99036.00
2018-08-16T14:30:48.662Z,99043.00
2018-08-16T14:33:19.458Z,99043.00
2018-08-16T14:35:50.347Z,99041.00
2018-08-16T14:38:21.459Z,99046.00
2018-08-16T14:40:52.719Z,99042.00
2018-08-16T14:43:23.590Z,99041.00
2018-08-16T14:45:54.408Z,99040.00
2018-08-16T14:48:25.452Z,99039.00
2018-08-16T14:50:56.356Z,99043.00
2018-08-16T14:53:27.180Z,99040.00
2018-08-16T14:55:57.993Z,99036.00
2018-08-16T14:58:28.991Z,99038.00
2018-08-16T15:00:59.727Z,99036.00
2018-08-16T15:03:30.820Z,99037.00
2018-08-16T15:06:01.729Z,99037.00
2018-08-16T15:08:32.451Z,99033.00
2018-08-16T15:11:03.615Z,99026.00
2018-08-16T15:13:33.824Z,99022.00
2018-08-16T15:16:04.738Z,99026.00
2018-08-16T15:18:35.529Z,99024.00
2018-08-16T15:21:05.783Z,99021.00
2018-08-16T15:23:36.928Z,99030.00
2018-08-16T15:26:08.019Z,99032.00
2018-08-16T15:28:37.939Z,99033.00
2018-08-16T15:31:08.802Z,99030.00
2018-08-16T15:33:39.742Z,99037.00
2018-08-16T15:36:10.787Z,99028.00
2018-08-16T15:38:41.807Z,99030.00
2018-08-16T15:41:12.603Z,99032.00
2018-08-16T15:43:43.517Z,99029.00
2018-08-16T15:46:14.379Z,99025.00
2018-08-16T15:48:45.289Z,99024.00
2018-08-16T15:51:16.054Z,99021.00
2018-08-16T15:53:46.937Z,99028.00
2018-08-16T15:56:17.738Z,99029.00
2018-08-16T15:58:47.559Z,99024.00
2018-08-16T16:01:17.840Z,99025.00
2018-08-16T16:03:48.397Z,99021.00
2018-08-16T16:06:18.853Z,99021.00
2018-08-16T16:08:49.460Z,99025.00
2018-08-16T16:11:19.773Z,99032.00
2018-08-16T16:13:50.145Z,99033.00
2018-08-16T16:16:20.945Z,99031.00
2018-08-16T16:18:51.748Z,99034.00
2018-08-16T16:21:22.741Z,99033.00
2018-08-16T16:23:53.413Z,99033.00
2018-08-16T16:26:24.294Z,99035.00
2018-08-16T16:28:55.297Z,99033.00
2018-08-16T16:31:26.178Z,99040.00
2018-08-16T16:33:57.404Z,99032.00
2018-08-16T16:36:28.357Z,99034.00
2018-08-16T16:38:59.756Z,99039.00
2018-08-16T16:41:31.011Z,99040.00
2018-08-16T16:44:02.119Z,99041.00
2018-08-16T16:46:33.631Z,99038.00
2018-08-16T16:49:05.471Z,99041.00
2018-08-16T16:51:36.881Z,99045.00
2018-08-16T16:54:07.840Z,99041.00
2018-08-16T16:56:39.052Z,99042.00
2018-08-16T16:59:10.967Z,99047.00
2018-08-16T17:01:41.268Z,99049.00
2018-08-16T17:04:11.239Z,99055.00
2018-08-16T17:06:41.931Z,99056.00
2018-08-16T17:09:13.462Z,99056.00
2018-08-16T17:11:43.747Z,99057.00
2018-08-16T17:14:13.839Z,99053.00
2018-08-16T17:16:43.661Z,99057.00
2018-08-16T17:19:13.721Z,99061.00
2018-08-16T17:21:44.319Z,99064.00
2018-08-16T17:24:14.222Z,99067.00
2018-08-16T17:26:45.206Z,99066.00
2018-08-16T17:29:15.044Z,99070.00
2018-08-16T17:31:44.798Z,99074.00
2018-08-16T17:34:14.593Z,99077.00
2018-08-16T17:36:44.444Z,99083.00
2018-08-16T17:39:14.232Z,99079.00
2018-08-16T17:41:44.117Z,99086.00
2018-08-16T17:44:14.294Z,99089.00
2018-08-16T17:46:44.211Z,99099.00
2018-08-16T17:49:14.080Z,99109.00
2018-08-16T17:51:43.922Z,99113.00
2018-08-16T17:54:13.707Z,99110.00
2018-08-16T17:56:43.659Z,99118.00
2018-08-16T17:59:13.576Z,99119.00
2018-08-16T18:01:43.576Z,99127.00
2018-08-16T18:04:13.342Z,99125.00
2018-08-16T18:06:43.120Z,99121.00
2018-08-16T18:09:12.978Z,99123.00
2018-08-16T18:11:43.151Z,99110.00
2018-08-16T18:14:13.071Z,99116.00
2018-08-16T18:16:43.056Z,99125.00
2018-08-16T18:19:12.846Z,99119.00
2018-08-16T18:21:42.641Z,99120.00
2018-08-16T18:24:12.557Z,99123.00
2018-08-16T18:26:42.424Z,99120.00
2018-08-16T18:29:12.400Z,99135.00
2018-08-16T18:31:42.140Z,99125.00
2018-08-16T18:34:11.990Z,99132.00
2018-08-16T18:36:41.979Z,99151.00
2018-08-16T18:39:11.909Z,99167.00
2018-08-16T18:41:42.256Z,99169.00
2018-08-16T18:44:12.570Z,99172.00
2018-08-16T18:46:42.341Z,99193.00
2018-08-16T18:49:12.185Z,99194.00
2018-08-16T18:51:42.020Z,99188.00
2018-08-16T18:54:12.111Z,99189.00
2018-08-16T18:56:42.236Z,99186.00
2018-08-16T18:59:12.664Z,99184.00
2018-08-16T19:01:42.563Z,99193.00
2018-08-16T19:04:12.624Z,99187.00
2018-08-16T19:06:42.861Z,99181.00
2018-08-16T19:09:13.102Z,99187.00
2018-08-16T19:11:43.070Z,99180.00
2018-08-16T19:14:12.934Z,99180.00
2018-08-16T19:16:42.946Z,99187.00
2018-08-16T19:19:13.154Z,99174.00
2018-08-16T19:21:43.154Z,99193.00
2018-08-16T19:24:13.428Z,99179.00
2018-08-16T19:26:43.849Z,99173.00
2018-08-16T19:29:13.718Z,99177.00
2018-08-16T19:31:43.656Z,99176.00
2018-08-16T19:34:14.868Z,99178.00
2018-08-16T19:36:46.155Z,99180.00
2018-08-16T19:39:17.295Z,99191.00
2018-08-16T19:41:49.056Z,99188.00
2018-08-16T19:44:20.005Z,99197.00
2018-08-16T19:46:51.284Z,99228.00
2018-08-16T19:49:22.714Z,99236.00
2018-08-16T19:51:54.562Z,99252.00
2018-08-16T19:54:26.629Z,99258.00
2018-08-16T19:56:58.426Z,99260.00
2018-08-16T19:59:29.807Z,99273.00
2018-08-16T20:02:01.272Z,99268.00
2018-08-16T20:04:32.732Z,99278.00
2018-08-16T20:07:03.582Z,99278.00
2018-08-16T20:09:34.557Z,99279.00
2018-08-16T20:12:04.899Z,99284.00
2018-08-16T20:14:35.673Z,99289.00
2018-08-16T20:17:06.715Z,99297.00
2018-08-16T20:19:38.078Z,99297.00
2018-08-16T20:22:14.201Z,99304.00
2018-08-16T20:24:45.509Z,99306.00
2018-08-16T20:27:16.403Z,99310.00
2018-08-16T20:29:48.100Z,99303.00
2018-08-16T20:32:18.948Z,99299.00
2018-08-16T20:34:49.601Z,99299.00
2018-08-16T20:37:20.609Z,99309.00
2018-08-16T20:39:51.684Z,99303.00
2018-08-16T20:42:23.187Z,99294.00
2018-08-16T20:44:54.819Z,99297.00
2018-08-16T20:47:25.505Z,99303.00
2018-08-16T20:49:56.390Z,99308.00
2018-08-16T20:52:27.210Z,99303.00
2018-08-16T20:54:57.995Z,99308.00
2018-08-16T20:57:27.981Z,99315.00
2018-08-16T20:59:58.804Z,99333.00
2018-08-16T21:02:29.512Z,99343.00
2018-08-16T21:05:00.394Z,99337.00
2018-08-16T21:07:31.125Z,99346.00
2018-08-16T21:10:02.493Z,99364.00
2018-08-16T21:12:33.328Z,99389.00
2018-08-16T21:15:04.681Z,99412.00
2018-08-16T21:17:35.509Z,99402.00
2018-08-16T21:20:07.109Z,99387.00
2018-08-16T21:39:22.129Z,99412.00
2018-08-16T21:41:53.017Z,99414.00
2018-08-16T21:44:23.981Z,99383.00
2018-08-16T21:46:54.672Z,99376.00
2018-08-16T21:49:25.833Z,99376.00
2018-08-16T21:51:56.687Z,99369.00
2018-08-16T21:54:27.699Z,99361.00
2018-08-16T21:56:58.898Z,99345.00
2018-08-16T21:59:29.832Z,99337.00
2018-08-16T22:02:00.676Z,99332.00
2018-08-16T22:04:32.012Z,99327.00
2018-08-16T22:07:06.769Z,99321.00
2018-08-16T22:09:37.433Z,99325.00
2018-08-16T22:12:09.031Z,99325.00
2018-08-16T22:14:40.433Z,99325.00
2018-08-16T22:17:11.444Z,99329.00
2018-08-16T22:19:42.216Z,99326.00
2018-08-16T22:22:13.930Z,99325.00
2018-08-16T22:24:44.759Z,99323.00
2018-08-16T22:27:15.701Z,99331.00
2018-08-16T22:29:46.566Z,99330.00
2018-08-16T22:32:17.693Z,99346.00
2018-08-16T22:34:49.018Z,99349.00
2018-08-16T22:37:19.802Z,99353.00
2018-08-16T22:39:50.573Z,99364.00
2018-08-16T22:42:21.478Z,99368.00
2018-08-16T22:44:52.515Z,99378.00
2018-08-16T22:47:23.101Z,99389.00
2018-08-16T22:49:53.726Z,99395.00
2018-08-16T22:52:25.489Z,99398.00
2018-08-16T22:54:56.355Z,99397.00
2018-08-16T22:57:28.088Z,99390.00
2018-08-16T22:59:58.936Z,99392.00
2018-08-16T23:02:29.885Z,99389.00
2018-08-16T23:05:00.799Z,99385.00
2018-08-16T23:07:32.340Z,99388.00
2018-08-16T23:10:03.445Z,99382.00
2018-08-16T23:12:34.605Z,99381.00
2018-08-16T23:15:06.098Z,99374.00
2018-08-16T23:17:36.980Z,99374.00
2018-08-16T23:20:08.465Z,99374.00
2018-08-16T23:22:40.052Z,99376.00
2018-08-16T23:25:11.800Z,99373.00
2018-08-16T23:27:42.509Z,99373.00
2018-08-16T23:30:15.153Z,99381.00
2018-08-16T23:32:46.093Z,99372.00
2018-08-16T23:35:17.871Z,99385.00
2018-08-16T23:37:48.691Z,99379.00
2018-08-16T23:40:19.591Z,99381.00
2018-08-16T23:42:50.572Z,99385.00
2018-08-16T23:45:22.007Z,99380.00
2018-08-16T23:48:03.950Z,99386.00
2018-08-16T23:50:34.688Z,99389.00
2018-08-16T23:53:05.853Z,99386.00
2018-08-16T23:55:36.820Z,99387.00
2018-08-16T23:58:07.746Z,99383.00
